Flight Track Log - Related Links

Times and Time Zones

All times are in EDT time to prevent confusion due to time zone crossing. See the N640MY flight status page for this flight to view local times or setup timezone preferences in your user account.

Time Position Orientation Groundspeed Altitude Reporting Facility
EDT Latitude Longitude Course Direction KTS MPH feet Rate Location/Type
Fri 10:26:22 PM 32.8667 -96.8667 320° Northwest 131 151 1,100  Level Dallas / Fort Worth TRACON
Fri 10:26:53 PM 32.8833 -96.8833 320° Northwest 139 160 1,700 635 Climbing Dallas / Fort Worth TRACON
Fri 10:27:47 PM 32.9167 -96.9000 337° Northwest 201 231 2,000 756 Climbing Dallas / Fort Worth TRACON
Fri 10:28:52 PM 32.9667 -96.8833 16° North 176 203 3,200 912 Climbing Dallas / Fort Worth TRACON
Fri 10:29:52 PM 32.9833 -96.8167 73° East 186 214 3,900 595 Climbing Dallas / Fort Worth TRACON
Fri 10:30:53 PM 32.9667 -96.7667 112° Southeast 205 236 4,400 730 Climbing Dallas / Fort Worth TRACON
Fri 10:31:47 PM 32.9333 -96.7167 128° Southeast 195 224 5,300 989 Climbing Dallas / Fort Worth TRACON
Fri 10:33:49 PM 32.8850 -96.6044 117° Southeast 195 224 7,300 984 Climbing Fort Worth Center
Fri 10:34:50 PM 32.8575 -96.5431 118° Southeast 195 224 8,300 942 Climbing Fort Worth Center
Fri 10:35:50 PM 32.8322 -96.4889 119° Southeast 195 224 9,200 850 Climbing Fort Worth Center
Fri 10:36:50 PM 32.8003 -96.4222 120° Southeast 205 236 10,000 400 Climbing Fort Worth Center
Fri 10:37:50 PM 32.7725 -96.3583 117° Southeast 220 253 10,000  Level Fort Worth Center
Fri 10:38:49 PM 32.7489 -96.2722 108° East 241 277 10,000 303 Level Fort Worth Center
Fri 10:39:49 PM 32.7397 -96.1983 98° East 246 283 10,600 800 Climbing Fort Worth Center
Fri 10:40:49 PM 32.7286 -96.1194 99° East 234 269 11,600 950 Climbing Fort Worth Center
Fri 10:41:49 PM 32.7175 -96.0528 101° East 228 262 12,500 950 Climbing Fort Worth Center
Fri 10:42:49 PM 32.7042 -95.9767 102° East 217 250 13,500 950 Climbing Fort Worth Center
Fri 10:43:49 PM 32.6950 -95.9125 100° East 217 250 14,400 1,000 Climbing Fort Worth Center
Fri 10:44:49 PM 32.6586 -95.8464 123° Southeast 217 250 15,500 950 Climbing Fort Worth Center
Fri 10:45:49 PM 32.6225 -95.7928 129° Southeast 222 255 16,300 942 Climbing Fort Worth Center
Fri 10:46:50 PM 32.5800 -95.7294 129° Southeast 228 262 17,400 1,000 Climbing Fort Worth Center
Fri 10:47:49 PM 32.5375 -95.6711 131° Southeast 228 262 18,300 908 Climbing Fort Worth Center
Fri 10:48:49 PM 32.4992 -95.6153 129° Southeast 228 262 19,200 942 Climbing Fort Worth Center
Fri 10:49:50 PM 32.4606 -95.5569 128° Southeast 228 262 20,200 950 Climbing Fort Worth Center
Fri 10:50:49 PM 32.4222 -95.5036 130° Southeast 228 262 21,100 958 Climbing Fort Worth Center
Fri 10:51:49 PM 32.3839 -95.4478 129° Southeast 223 257 22,100 893 Climbing Fort Worth Center
Fri 10:52:50 PM 32.3497 -95.3944 127° Southeast 218 251 22,900 446 Climbing Fort Worth Center
Fri 10:53:50 PM 32.3131 -95.3364 127° Southeast 218 251 23,000 50 Climbing Fort Worth Center
Fri 10:54:49 PM 32.2744 -95.2633 122° Southeast 233 268 23,000  Level Fort Worth Center
Fri 10:55:50 PM 32.2250 -95.1908 129° Southeast 264 304 23,000  Level Fort Worth Center
Fri 10:56:50 PM 32.1864 -95.1231 124° Southeast 276 318 23,000  Level Fort Worth Center
Fri 10:57:49 PM 32.1411 -95.0458 125° Southeast 283 326 23,000  Level Fort Worth Center
Fri 10:58:49 PM 32.0936 -94.9686 126° Southeast 283 326 23,000  Level Fort Worth Center
Fri 10:59:50 PM 32.0483 -94.8936 125° Southeast 283 326 23,000  Level Fort Worth Center
Fri 11:00:49 PM 31.9964 -94.8069 125° Southeast 283 326 23,000  Level Fort Worth Center
Fri 11:01:49 PM 31.9489 -94.7325 127° Southeast 283 326 23,000  Level Fort Worth Center
Fri 11:02:49 PM 31.9014 -94.6556 126° Southeast 283 326 23,000  Level Fort Worth Center
Fri 11:03:49 PM 31.8558 -94.5786 125° Southeast 283 326 23,000  Level Fort Worth Center
Fri 11:04:49 PM 31.8083 -94.5044 127° Southeast 283 326 23,000  Level Fort Worth Center
Fri 11:06:04 PM 31.7528 -94.4153 126° Southeast 288 331 23,000  Level Houston Center
Fri 11:07:05 PM 31.7064 -94.3406 126° Southeast 284 327 23,000  Level Houston Center
Fri 11:08:06 PM 31.6597 -94.2628 125° Southeast 288 331 23,000  Level Houston Center
Fri 11:09:07 PM 31.6119 -94.1864 126° Southeast 288 331 23,000  Level Houston Center
Fri 11:10:08 PM 31.5639 -94.1111 127° Southeast 287 330 23,000  Level Houston Center
Fri 11:11:10 PM 31.5181 -94.0356 125° Southeast 286 329 23,000  Level Houston Center
Fri 11:12:11 PM 31.4706 -93.9614 127° Southeast 283 326 23,000  Level Houston Center
Fri 11:13:12 PM 31.4236 -93.8858 126° Southeast 285 328 23,000  Level Houston Center
Fri 11:14:13 PM 31.3669 -93.7958 126° Southeast 285 328 23,000  Level Houston Center
Fri 11:15:14 PM 31.3197 -93.7217 127° Southeast 285 328 23,000  Level Houston Center
Fri 11:16:15 PM 31.2731 -93.6472 126° Southeast 284 327 23,000  Level Houston Center
Fri 11:17:16 PM 31.2269 -93.5736 126° Southeast 283 326 23,000  Level Houston Center
Fri 11:18:18 PM 31.1800 -93.4997 127° Southeast 283 326 23,000  Level Houston Center
Fri 11:19:19 PM 31.1325 -93.4247 126° Southeast 284 327 23,000  Level Houston Center
Fri 11:20:20 PM 31.0853 -93.3511 127° Southeast 284 327 23,000  Level Houston Center
Fri 11:21:21 PM 31.0394 -93.2775 126° Southeast 282 325 23,000  Level Houston Center
Fri 11:22:22 PM 30.9919 -93.2050 127° Southeast 281 323 23,000  Level Houston Center
Fri 11:23:23 PM 30.9464 -93.1325 126° Southeast 278 320 23,000  Level Houston Center
Fri 11:24:24 PM 30.9000 -93.0594 126° Southeast 279 321 23,000  Level Houston Center
Fri 11:25:25 PM 30.8539 -92.9872 127° Southeast 279 321 23,000  Level Houston Center
Fri 11:26:26 PM 30.8061 -92.9153 128° Southeast 277 319 23,000 -195 Level Houston Center
Fri 11:27:28 PM 30.7606 -92.8436 126° Southeast 277 319 22,600 -1,024 Descending Houston Center
Fri 11:28:29 PM 30.7014 -92.7472 126° Southeast 295 339 20,900 -1,525 Descending Houston Center
Fri 11:29:30 PM 30.6475 -92.6650 127° Southeast 310 357 19,500 -1,426 Descending Houston Center
Fri 11:30:31 PM 30.5958 -92.5878 128° Southeast 310 357 18,000 -1,574 Descending Houston Center
Fri 11:31:32 PM 30.5472 -92.5131 127° Southeast 297 342 16,300 -1,721 Descending Houston Center
Fri 11:32:33 PM 30.5008 -92.4403 126° Southeast 285 328 14,500 -1,869 Descending Houston Center
Fri 11:33:34 PM 30.4578 -92.3739 127° Southeast 253 291 12,500 -1,820 Descending Houston Center
Fri 11:34:35 PM 30.4194 -92.3150 127° Southeast 239 275 10,800 -1,672 Descending Houston Center
Fri 11:36:00 PM 30.3508 -92.2365 135° Southeast  Level FlightAware Approximate
Fri 11:43:00 PM 30.2000 -91.9833 North  Level FlightAware Approximate
Fri 11:44:00 PM 30.2050 -91.9877 North  Level Estimated
Fri 11:45:00 PM 30.2000 -91.9833 North  Level FlightAware Approximate
Fri 11:46:00 PM 30.2050 -91.9877 North  Level Estimated
Fri 11:47:00 PM 30.2000 -91.9833 North  Level FlightAware Approximate
Fri 11:48:00 PM 30.2050 -91.9877 North  Level Estimated
Fri 11:49:00 PM 30.2000 -91.9833 North  Level FlightAware Approximate
Fri 11:50:00 PM 30.2050 -91.9877 North  Level Estimated
Fri 11:51:00 PM 30.2000 -91.9833 North  Level FlightAware Approximate
Fri 11:52:00 PM 30.2050 -91.9877 North  Level Estimated
Fri 11:53:00 PM 30.2000 -91.9833 North  Level FlightAware Approximate
Fri 11:54:00 PM 30.2050 -91.9877 North  Level Estimated
Fri 11:55:00 PM 30.2000 -91.9833 North  Level FlightAware Approximate
Fri 11:56:00 PM 30.2050 -91.9877 North  Level Estimated
Fri 11:57:00 PM 30.2000 -91.9833 North  Level FlightAware Approximate
Fri 11:58:00 PM 30.2050 -91.9877 North  Level Estimated
Fri 11:59:00 PM 30.2000 -91.9833 North  Level FlightAware Approximate
Sat 12:00:00 AM 30.2050 -91.9877 North  Level Estimated

Login

Don't have an account? Register now (free) for customized features, flight alerts, and more!